Time;durP1;ratioP1;P1;durP2;ratioP2;P2;SDS_P1;SDS_P2;PMS_P1;PMS_P2;Temp;Humidity;BMP_temperature;BMP_pressure;BME280_temperature;BME280_humidity;BME280_pressure;Samples;Min_cycle;Max_cycle;Signal;HPM_P1;HPM_P2
2021/04/17 00:00:27;;;;;;;4.25;3.85;;;12.10;40.20;;;;;;1495824;39;20027;-54
2021/04/17 00:01:49;;;;;;;4.97;3.60;;;12.10;40.30;;;;;;1497766;39;20207;-54
2021/04/17 00:03:09;;;;;;;5.13;3.55;;;12.10;40.20;;;;;;1494500;39;20052;-54
2021/04/17 00:04:31;;;;;;;6.07;3.55;;;12.10;40.30;;;;;;1494202;39;20078;-53
2021/04/17 00:05:51;;;;;;;4.15;3.50;;;12.00;40.50;;;;;;1494197;39;20072;-54
2021/04/17 00:07:15;;;;;;;5.88;4.13;;;12.10;40.50;;;;;;1490522;39;20044;-52
2021/04/17 00:08:36;;;;;;;5.38;3.97;;;12.00;40.50;;;;;;1492733;39;20132;-53
2021/04/17 00:09:56;;;;;;;6.63;3.65;;;12.00;40.40;;;;;;1496628;39;20153;-54
2021/04/17 00:11:18;;;;;;;4.43;3.80;;;12.00;40.50;;;;;;1499146;39;20123;-53
2021/04/17 00:12:38;;;;;;;5.75;3.42;;;12.00;40.50;;;;;;1496380;39;20070;-54
2021/04/17 00:14:00;;;;;;;4.93;3.55;;;12.00;40.60;;;;;;1495499;39;20038;-51
2021/04/17 00:15:20;;;;;;;5.60;4.05;;;12.00;40.60;;;;;;1495959;39;20264;-53
2021/04/17 00:16:42;;;;;;;4.40;3.50;;;11.90;40.60;;;;;;1496744;39;20027;-51
2021/04/17 00:18:03;;;;;;;6.00;3.97;;;12.00;40.70;;;;;;1494654;39;20563;-53
2021/04/17 00:19:24;;;;;;;6.03;3.60;;;12.00;40.70;;;;;;1495918;39;20050;-49
2021/04/17 00:20:45;;;;;;;5.15;3.80;;;11.90;40.80;;;;;;1494150;39;20130;-51
2021/04/17 00:22:06;;;;;;;4.18;3.78;;;11.90;40.80;;;;;;1496268;39;20027;-54
2021/04/17 00:23:27;;;;;;;5.97;4.38;;;11.90;40.80;;;;;;1496251;39;20030;-49
2021/04/17 00:24:48;;;;;;;5.55;3.88;;;11.90;40.90;;;;;;1496152;39;20046;-49
2021/04/17 00:26:09;;;;;;;4.07;3.65;;;11.90;41.00;;;;;;1497701;39;20060;-53
2021/04/17 00:27:29;;;;;;;5.97;3.80;;;11.90;41.00;;;;;;1497523;39;20409;-53
2021/04/17 00:28:51;;;;;;;4.40;3.95;;;11.90;41.00;;;;;;1490393;39;20063;-53
2021/04/17 00:30:13;;;;;;;5.53;3.90;;;11.90;41.00;;;;;;1495513;39;20429;-53
2021/04/17 00:31:35;;;;;;;4.32;3.92;;;11.90;41.10;;;;;;1499112;39;20039;-54
2021/04/17 00:32:56;;;;;;;4.75;3.67;;;11.90;41.20;;;;;;1493822;39;20027;-50
2021/04/17 00:34:17;;;;;;;6.82;3.65;;;11.80;41.10;;;;;;1497242;39;20267;-54
2021/04/17 00:35:38;;;;;;;4.80;3.97;;;11.90;41.10;;;;;;1495979;39;20043;-51
2021/04/17 00:36:59;;;;;;;6.50;3.92;;;11.90;41.10;;;;;;1495438;39;20072;-53
2021/04/17 00:38:20;;;;;;;4.88;4.10;;;11.90;41.10;;;;;;1497925;39;20027;-53
2021/04/17 00:39:41;;;;;;;5.60;4.22;;;11.80;41.00;;;;;;1496348;39;20368;-52
2021/04/17 00:41:02;;;;;;;4.40;3.95;;;11.80;41.10;;;;;;1499108;39;20023;-55
2021/04/17 00:42:23;;;;;;;5.25;4.15;;;11.80;41.10;;;;;;1496110;39;20026;-53
2021/04/17 00:43:45;;;;;;;6.13;4.25;;;11.80;41.10;;;;;;1494275;39;20035;-55
2021/04/17 00:45:07;;;;;;;5.13;4.38;;;11.80;41.70;;;;;;1492358;39;20320;-55
2021/04/17 00:46:27;;;;;;;3.85;3.55;;;11.80;41.20;;;;;;1495658;39;20092;-55
2021/04/17 00:47:49;;;;;;;6.57;4.05;;;11.80;41.30;;;;;;1497006;39;20042;-53
2021/04/17 00:49:11;;;;;;;5.78;3.80;;;11.80;41.20;;;;;;1497845;39;20363;-53
2021/04/17 00:50:33;;;;;;;4.22;3.83;;;11.70;41.20;;;;;;1498419;39;20399;-54
2021/04/17 00:51:54;;;;;;;5.50;4.22;;;11.70;41.30;;;;;;1497648;39;20396;-53
2021/04/17 00:53:16;;;;;;;6.00;4.55;;;11.70;41.30;;;;;;1496767;39;20310;-52
2021/04/17 00:54:37;;;;;;;6.22;4.25;;;11.70;41.40;;;;;;1494357;39;20034;-52
2021/04/17 00:55:58;;;;;;;5.80;4.43;;;11.70;41.30;;;;;;1499392;39;20056;-51
2021/04/17 00:57:19;;;;;;;6.95;3.80;;;11.70;41.40;;;;;;1497734;39;20042;-53
2021/04/17 00:58:40;;;;;;;6.65;4.32;;;11.70;41.40;;;;;;1496338;39;20035;-54
2021/04/17 01:00:04;;;;;;;5.38;4.20;;;11.60;41.40;;;;;;1496645;39;20359;-51
2021/04/17 01:01:25;;;;;;;5.43;4.38;;;11.60;41.50;;;;;;1498671;39;20419;-52
2021/04/17 01:03:04;;;;;;;5.30;4.22;;;11.60;41.50;;;;;;1497397;39;20051;-54
2021/04/17 01:04:35;;;;;;;5.57;4.00;;;11.60;41.80;;;;;;1497113;39;20055;-51
2021/04/17 01:05:59;;;;;;;;;;;11.50;41.70;;;;;;1496761;39;20031;-51
2021/04/17 01:07:31;;;;;;;4.65;3.72;;;11.50;41.60;;;;;;1497607;39;20182;-51
2021/04/17 01:09:02;;;;;;;5.82;3.92;;;11.50;41.40;;;;;;1495037;39;20031;-54
2021/04/17 01:10:35;;;;;;;6.85;4.10;;;11.50;41.50;;;;;;1496065;39;20024;-54
2021/04/17 01:12:06;;;;;;;4.05;3.65;;;11.50;41.50;;;;;;1494380;39;20091;-54
2021/04/17 01:13:28;;;;;;;5.65;3.85;;;11.40;41.50;;;;;;1493000;39;20026;-50
2021/04/17 01:14:52;;;;;;;4.75;4.15;;;11.40;41.30;;;;;;1495511;39;20071;-52
2021/04/17 01:16:13;;;;;;;4.63;4.07;;;11.40;41.50;;;;;;1498200;39;20035;-54
2021/04/17 01:17:36;;;;;;;9.20;4.18;;;11.40;41.60;;;;;;1493162;39;20045;-53
2021/04/17 01:18:58;;;;;;;5.30;3.90;;;11.30;41.60;;;;;;1492357;39;20027;-52
2021/04/17 01:20:26;;;;;;;3.83;3.45;;;11.30;41.60;;;;;;1493412;39;20036;-55
2021/04/17 01:21:47;;;;;;;5.88;4.20;;;11.30;41.80;;;;;;1495499;39;20046;-51
2021/04/17 01:23:36;;;;;;;4.82;4.05;;;11.20;41.70;;;;;;1487674;39;20032;-53
2021/04/17 01:25:13;;;;;;;4.40;4.00;;;11.20;42.10;;;;;;1495560;39;20026;-51
2021/04/17 01:26:34;;;;;;;6.53;4.50;;;11.20;42.20;;;;;;1494070;39;20265;-51
2021/04/17 01:27:55;;;;;;;5.72;4.40;;;11.20;41.80;;;;;;1494061;39;20560;-51
2021/04/17 01:29:17;;;;;;;6.80;4.32;;;11.10;41.80;;;;;;1493505;39;20020;-53
2021/04/17 01:30:38;;;;;;;6.90;4.20;;;11.10;41.90;;;;;;1498122;39;20335;-54
2021/04/17 01:32:01;;;;;;;5.20;4.22;;;11.10;41.90;;;;;;1496621;39;20053;-53
2021/04/17 01:33:28;;;;;;;5.28;4.18;;;11.10;42.10;;;;;;1497703;39;20099;-52
2021/04/17 01:34:50;;;;;;;6.85;4.25;;;11.00;42.20;;;;;;1493610;39;20094;-52
2021/04/17 01:36:13;;;;;;;5.43;4.35;;;11.00;42.10;;;;;;1496363;39;20030;-54
2021/04/17 01:38:12;;;;;;;5.00;4.28;;;11.00;42.20;;;;;;1494978;39;20039;-52
2021/04/17 01:39:34;;;;;;;5.20;3.97;;;11.00;42.50;;;;;;1484907;39;20031;-53
2021/04/17 01:41:10;;;;;;;5.22;4.10;;;11.00;42.10;;;;;;1492591;39;20043;-51
2021/04/17 01:42:31;;;;;;;5.80;3.78;;;10.90;42.50;;;;;;1495823;39;20046;-53
2021/04/17 01:43:55;;;;;;;6.97;3.97;;;10.90;42.10;;;;;;1497165;39;20053;-54
2021/04/17 01:45:20;;;;;;;4.57;4.03;;;10.90;42.30;;;;;;1496995;39;20024;-55
2021/04/17 01:46:44;;;;;;;5.00;4.28;;;10.90;42.40;;;;;;1496636;39;20035;-55
2021/04/17 01:48:07;;;;;;;4.63;4.18;;;10.90;42.50;;;;;;1494123;39;20032;-53
2021/04/17 01:49:29;;;;;;;5.78;3.95;;;10.80;42.40;;;;;;1492031;39;20050;-51
2021/04/17 01:50:52;;;;;;;5.65;3.92;;;10.80;42.50;;;;;;1494765;39;20401;-54
2021/04/17 01:52:17;;;;;;;6.50;4.40;;;10.80;42.70;;;;;;1492842;39;20032;-52
2021/04/17 01:53:41;;;;;;;5.57;4.30;;;10.80;42.70;;;;;;1496862;39;20049;-54
2021/04/17 01:55:03;;;;;;;5.00;4.05;;;10.80;42.70;;;;;;1496496;39;20310;-52
2021/04/17 01:56:25;;;;;;;5.88;4.32;;;10.80;42.70;;;;;;1495228;39;20039;-50
2021/04/17 01:57:48;;;;;;;4.57;4.07;;;10.70;42.70;;;;;;1495335;39;20118;-51
2021/04/17 01:59:10;;;;;;;4.75;3.95;;;10.70;42.80;;;;;;1496034;39;20044;-50
2021/04/17 02:00:31;;;;;;;4.22;3.78;;;10.70;42.80;;;;;;1495985;39;20035;-54
2021/04/17 02:01:52;;;;;;;6.18;3.92;;;10.70;42.80;;;;;;1497207;39;20503;-53
2021/04/17 02:03:13;;;;;;;5.78;4.28;;;10.70;42.80;;;;;;1496169;39;20027;-52
2021/04/17 02:04:35;;;;;;;5.88;4.20;;;10.60;42.80;;;;;;1497714;39;20042;-54
2021/04/17 02:05:56;;;;;;;6.55;3.85;;;10.60;42.90;;;;;;1496320;39;20390;-51
2021/04/17 02:07:17;;;;;;;4.70;4.05;;;10.60;42.90;;;;;;1497432;39;20067;-51
2021/04/17 02:08:39;;;;;;;5.53;3.80;;;10.60;42.90;;;;;;1496292;39;20031;-51
2021/04/17 02:10:00;;;;;;;4.63;4.13;;;10.60;43.10;;;;;;1494996;39;20039;-50
2021/04/17 02:11:21;;;;;;;4.10;3.70;;;10.60;43.10;;;;;;1497517;39;20026;-51
2021/04/17 02:12:42;;;;;;;5.95;4.35;;;10.60;43.10;;;;;;1494767;39;20256;-55
2021/04/17 02:14:04;;;;;;;4.80;3.92;;;10.50;43.20;;;;;;1498717;39;20059;-52
2021/04/17 02:15:27;;;;;;;6.28;4.00;;;10.50;43.20;;;;;;1498501;39;20463;-52
2021/04/17 02:16:54;;;;;;;6.53;3.65;;;10.50;43.20;;;;;;1498350;39;20275;-50
2021/04/17 02:18:27;;;;;;;7.18;3.92;;;10.50;43.40;;;;;;1497684;39;20030;-52
2021/04/17 02:19:56;;;;;;;5.13;4.00;;;10.50;43.60;;;;;;1496586;39;20096;-53
2021/04/17 02:21:23;;;;;;;5.15;4.05;;;10.50;43.50;;;;;;1494869;39;20023;-52
2021/04/17 02:22:45;;;;;;;4.22;3.75;;;10.50;43.40;;;;;;1496238;39;20046;-50
2021/04/17 02:24:07;;;;;;;4.70;3.95;;;10.50;43.60;;;;;;1496396;39;20263;-53
2021/04/17 02:25:28;;;;;;;4.95;3.50;;;10.40;43.40;;;;;;1498210;39;20478;-49
2021/04/17 02:26:49;;;;;;;4.95;3.95;;;10.40;43.40;;;;;;1494203;39;20030;-52
2021/04/17 02:28:10;;;;;;;5.10;3.60;;;10.40;43.40;;;;;;1497476;39;20019;-51
2021/04/17 02:29:33;;;;;;;5.65;3.65;;;10.40;43.60;;;;;;1496178;39;20023;-51
2021/04/17 02:30:54;;;;;;;5.40;4.10;;;10.40;43.70;;;;;;1496963;39;20040;-53
2021/04/17 02:32:16;;;;;;;4.32;3.85;;;10.40;43.60;;;;;;1499282;39;20033;-51
2021/04/17 02:33:37;;;;;;;5.07;3.67;;;10.40;43.70;;;;;;1496984;39;20359;-52
2021/04/17 02:34:57;;;;;;;4.22;3.75;;;10.30;43.60;;;;;;1492548;39;20023;-53
2021/04/17 02:36:18;;;;;;;6.90;4.25;;;10.30;43.60;;;;;;1495397;39;20035;-52
2021/04/17 02:37:39;;;;;;;5.75;4.35;;;10.30;43.70;;;;;;1498659;39;20035;-52
2021/04/17 02:39:00;;;;;;;4.03;3.67;;;10.30;43.70;;;;;;1496039;39;20062;-48
2021/04/17 02:40:21;;;;;;;4.22;3.58;;;10.30;43.70;;;;;;1497806;39;20363;-53
2021/04/17 02:41:42;;;;;;;4.63;3.80;;;10.30;43.80;;;;;;1493205;39;20371;-51
2021/04/17 02:43:04;;;;;;;4.00;3.60;;;10.30;43.90;;;;;;1498170;39;20426;-52
2021/04/17 02:44:24;;;;;;;5.05;4.22;;;10.30;43.90;;;;;;1495935;39;20032;-54
2021/04/17 02:45:45;;;;;;;5.50;4.03;;;10.30;43.90;;;;;;1497959;39;20038;-50
2021/04/17 02:47:07;;;;;;;4.88;4.00;;;10.20;43.90;;;;;;1497561;39;20030;-53
2021/04/17 02:48:28;;;;;;;4.00;3.55;;;10.20;44.00;;;;;;1496325;39;20050;-54
2021/04/17 02:49:48;;;;;;;4.43;3.80;;;10.20;44.00;;;;;;1493333;39;20188;-52
2021/04/17 02:51:10;;;;;;;5.55;4.30;;;10.20;44.00;;;;;;1497582;39;20015;-54
2021/04/17 02:52:31;;;;;;;6.03;4.30;;;10.20;44.00;;;;;;1497702;39;20359;-50
2021/04/17 02:53:52;;;;;;;6.07;4.00;;;10.10;44.10;;;;;;1499607;39;20027;-50
2021/04/17 02:55:13;;;;;;;6.10;4.20;;;10.10;44.10;;;;;;1494843;39;20038;-51
2021/04/17 02:56:34;;;;;;;3.95;3.47;;;10.10;44.20;;;;;;1496917;39;20119;-52
2021/04/17 02:57:55;;;;;;;4.90;3.80;;;10.10;44.20;;;;;;1495435;39;20053;-50
2021/04/17 02:59:16;;;;;;;6.63;4.22;;;10.10;44.20;;;;;;1494699;39;20036;-51
2021/04/17 03:00:37;;;;;;;4.93;4.10;;;10.10;44.30;;;;;;1493082;39;20027;-50
2021/04/17 03:01:58;;;;;;;4.93;4.15;;;10.10;44.40;;;;;;1494797;39;20697;-50
2021/04/17 03:03:19;;;;;;;6.40;4.40;;;10.10;44.50;;;;;;1495938;39;20046;-53
2021/04/17 03:04:40;;;;;;;5.15;3.95;;;10.10;44.40;;;;;;1494418;39;20047;-51
2021/04/17 03:06:01;;;;;;;5.95;4.03;;;10.00;44.40;;;;;;1498074;39;20527;-49
2021/04/17 03:07:22;;;;;;;5.65;4.25;;;10.00;44.40;;;;;;1497458;39;20071;-53
2021/04/17 03:08:43;;;;;;;5.97;4.63;;;10.00;44.50;;;;;;1498111;39;20539;-53
2021/04/17 03:10:06;;;;;;;4.30;3.85;;;10.00;44.50;;;;;;1494374;39;20042;-51
2021/04/17 03:11:27;;;;;;;4.93;4.25;;;10.00;44.60;;;;;;1496898;39;20237;-52
2021/04/17 03:12:48;;;;;;;5.85;4.38;;;10.00;44.50;;;;;;1495248;39;20660;-51
2021/04/17 03:14:09;;;;;;;6.10;4.53;;;10.00;44.50;;;;;;1494676;39;20047;-53
2021/04/17 03:15:30;;;;;;;5.60;4.05;;;9.90;44.50;;;;;;1493798;39;20038;-49
2021/04/17 03:16:51;;;;;;;6.72;4.60;;;9.90;44.50;;;;;;1493355;39;20023;-52
2021/04/17 03:18:12;;;;;;;5.03;4.03;;;9.90;44.60;;;;;;1497989;39;20080;-54
2021/04/17 03:19:34;;;;;;;4.65;4.05;;;9.90;44.60;;;;;;1494976;39;20454;-52
2021/04/17 03:20:54;;;;;;;6.60;4.38;;;9.90;44.70;;;;;;1498434;39;20034;-54
2021/04/17 03:22:15;;;;;;;5.90;4.22;;;9.90;44.80;;;;;;1499145;39;20026;-53
2021/04/17 03:23:37;;;;;;;4.97;4.15;;;9.90;44.70;;;;;;1497793;39;20154;-53
2021/04/17 03:24:58;;;;;;;5.38;4.28;;;9.90;44.80;;;;;;1491125;39;20050;-54
2021/04/17 03:26:19;;;;;;;5.38;3.88;;;9.80;44.80;;;;;;1495636;39;20086;-53
2021/04/17 03:27:41;;;;;;;6.47;4.60;;;9.80;44.80;;;;;;1495926;39;20527;-50
2021/04/17 03:29:02;;;;;;;4.60;4.15;;;9.80;44.80;;;;;;1495474;39;20027;-53
2021/04/17 03:30:28;;;;;;;6.35;4.18;;;9.80;44.90;;;;;;1498393;39;20123;-52
2021/04/17 03:31:48;;;;;;;4.53;3.70;;;9.80;45.00;;;;;;1490395;39;20173;-53
2021/04/17 03:33:10;;;;;;;5.22;4.15;;;9.80;45.00;;;;;;1495271;39;20038;-51
2021/04/17 03:34:30;;;;;;;5.82;4.03;;;9.80;45.10;;;;;;1493851;39;20026;-51
2021/04/17 03:35:51;;;;;;;6.38;4.47;;;9.70;45.50;;;;;;1496398;39;20049;-49
2021/04/17 03:37:12;;;;;;;5.18;4.68;;;9.70;45.00;;;;;;1498225;39;20027;-51
2021/04/17 03:38:34;;;;;;;4.72;3.95;;;9.70;45.00;;;;;;1497055;39;20059;-53
2021/04/17 03:39:55;;;;;;;5.53;4.00;;;9.70;45.10;;;;;;1494686;39;20027;-55
2021/04/17 03:41:16;;;;;;;4.47;4.00;;;9.70;45.20;;;;;;1495893;39;20037;-54
2021/04/17 03:42:37;;;;;;;6.22;4.07;;;9.70;45.30;;;;;;1496699;39;20061;-55
2021/04/17 03:43:58;;;;;;;5.32;4.40;;;9.70;45.30;;;;;;1495413;39;20112;-53
2021/04/17 03:45:19;;;;;;;4.90;3.88;;;9.70;45.20;;;;;;1499541;39;20042;-50
2021/04/17 03:46:39;;;;;;;5.78;4.13;;;9.60;45.30;;;;;;1498289;39;20031;-54
2021/04/17 03:48:00;;;;;;;5.47;4.60;;;9.60;45.30;;;;;;1494910;39;20031;-52
2021/04/17 03:49:22;;;;;;;7.60;4.47;;;9.60;45.30;;;;;;1495811;39;20077;-51
2021/04/17 03:50:43;;;;;;;5.47;4.70;;;9.60;45.30;;;;;;1497174;39;20031;-52
2021/04/17 03:52:04;;;;;;;6.80;4.70;;;9.60;45.30;;;;;;1496469;39;20275;-52
2021/04/17 03:53:25;;;;;;;4.68;3.85;;;9.60;45.50;;;;;;1495748;39;20046;-53
2021/04/17 03:54:46;;;;;;;6.47;4.10;;;9.60;45.50;;;;;;1495762;39;20127;-52
2021/04/17 03:56:07;;;;;;;6.28;4.28;;;9.60;45.50;;;;;;1495142;39;20035;-52
2021/04/17 03:57:27;;;;;;;5.20;4.20;;;9.50;45.50;;;;;;1495392;39;20383;-53
2021/04/17 03:58:48;;;;;;;4.22;3.75;;;9.50;45.50;;;;;;1495804;39;20030;-52
2021/04/17 04:00:13;;;;;;;5.68;3.58;;;9.50;45.60;;;;;;1497268;39;20090;-52
2021/04/17 04:01:34;;;;;;;5.68;4.30;;;9.50;45.70;;;;;;1496424;39;20039;-51
2021/04/17 04:02:55;;;;;;;4.90;4.15;;;9.50;45.60;;;;;;1495440;39;20349;-49
2021/04/17 04:04:16;;;;;;;4.97;3.92;;;9.50;45.60;;;;;;1496676;39;20031;-52
2021/04/17 04:05:37;;;;;;;6.15;4.05;;;9.50;45.70;;;;;;1496238;39;20122;-52
2021/04/17 04:06:58;;;;;;;7.15;4.43;;;9.50;45.70;;;;;;1493984;39;20020;-53
2021/04/17 04:08:19;;;;;;;6.82;4.35;;;9.40;45.60;;;;;;1499663;39;20034;-51
2021/04/17 04:09:40;;;;;;;4.40;4.00;;;9.40;45.60;;;;;;1492749;39;20055;-50
2021/04/17 04:11:01;;;;;;;5.28;4.38;;;9.40;45.70;;;;;;1496836;39;20084;-53
2021/04/17 04:12:22;;;;;;;6.25;3.92;;;9.40;45.80;;;;;;1494732;39;20359;-51
2021/04/17 04:13:43;;;;;;;4.25;3.85;;;9.40;45.80;;;;;;1493892;39;20067;-51
2021/04/17 04:15:04;;;;;;;5.50;3.92;;;9.40;45.80;;;;;;1497385;39;20084;-53
2021/04/17 04:16:25;;;;;;;4.22;3.83;;;9.30;45.80;;;;;;1496992;39;20180;-55
2021/04/17 04:17:46;;;;;;;5.40;3.97;;;9.40;45.90;;;;;;1494815;39;20038;-54
2021/04/17 04:19:07;;;;;;;9.57;4.05;;;9.30;45.90;;;;;;1496592;39;20032;-55
2021/04/17 04:20:28;;;;;;;5.85;4.10;;;9.30;45.90;;;;;;1496757;39;20038;-53
2021/04/17 04:21:49;;;;;;;4.40;3.85;;;9.20;46.00;;;;;;1492743;39;20039;-55
2021/04/17 04:23:10;;;;;;;5.78;3.90;;;9.30;46.00;;;;;;1495656;39;20284;-54
2021/04/17 04:24:31;;;;;;;5.10;4.07;;;9.30;46.00;;;;;;1497844;39;20034;-53
2021/04/17 04:25:51;;;;;;;8.10;4.13;;;9.20;45.90;;;;;;1495983;39;20031;-51
2021/04/17 04:27:12;;;;;;;6.95;3.97;;;9.30;46.60;;;;;;1495381;39;20023;-52
2021/04/17 04:28:33;;;;;;;5.07;4.13;;;9.30;46.10;;;;;;1498092;39;20039;-55
2021/04/17 04:29:54;;;;;;;6.30;4.03;;;9.30;46.10;;;;;;1498980;39;20031;-50
2021/04/17 04:31:15;;;;;;;5.22;4.38;;;9.20;46.20;;;;;;1492091;39;20096;-52
2021/04/17 04:32:36;;;;;;;6.78;4.63;;;9.20;46.20;;;;;;1497357;39;20022;-52
2021/04/17 04:33:57;;;;;;;6.25;4.15;;;9.20;46.10;;;;;;1494349;39;20024;-53
2021/04/17 04:35:18;;;;;;;5.65;3.85;;;9.20;46.20;;;;;;1492091;39;20031;-52
2021/04/17 04:36:39;;;;;;;6.15;3.90;;;9.20;46.20;;;;;;1495301;39;20046;-52
2021/04/17 04:38:00;;;;;;;6.28;3.67;;;9.20;46.20;;;;;;1493815;39;20018;-53
2021/04/17 04:39:21;;;;;;;8.45;4.10;;;9.20;46.40;;;;;;1493513;39;20031;-53
2021/04/17 04:40:42;;;;;;;5.50;4.03;;;9.20;46.30;;;;;;1492536;39;20038;-54
2021/04/17 04:42:04;;;;;;;6.10;4.45;;;9.20;46.30;;;;;;1494421;39;20023;-49
2021/04/17 04:43:25;;;;;;;6.10;4.22;;;9.20;46.40;;;;;;1497540;39;20038;-51
2021/04/17 04:44:46;;;;;;;5.15;3.83;;;9.10;46.40;;;;;;1498881;39;20027;-52
2021/04/17 04:46:07;;;;;;;5.45;4.03;;;9.10;46.40;;;;;;1497021;39;20027;-51
2021/04/17 04:47:28;;;;;;;3.95;3.55;;;9.10;46.40;;;;;;1494945;39;20474;-52
2021/04/17 04:48:49;;;;;;;7.47;4.80;;;9.10;46.40;;;;;;1494895;39;20033;-53
2021/04/17 04:50:10;;;;;;;4.97;4.47;;;9.10;46.50;;;;;;1494807;39;20254;-54
2021/04/17 04:51:31;;;;;;;10.18;4.57;;;9.10;46.60;;;;;;1497272;39;20042;-51
2021/04/17 04:52:52;;;;;;;4.93;4.10;;;9.10;46.60;;;;;;1494315;39;20034;-53
2021/04/17 04:54:13;;;;;;;5.38;4.30;;;9.10;46.50;;;;;;1497331;39;20332;-52
2021/04/17 04:55:34;;;;;;;4.88;4.38;;;9.10;47.10;;;;;;1495552;39;20348;-51
2021/04/17 04:56:55;;;;;;;5.65;4.10;;;9.00;46.50;;;;;;1494033;39;20039;-53
2021/04/17 04:58:16;;;;;;;5.05;3.95;;;9.00;46.60;;;;;;1498911;39;20034;-51
2021/04/17 04:59:37;;;;;;;6.40;4.43;;;9.00;46.70;;;;;;1495780;39;20027;-54
2021/04/17 05:00:58;;;;;;;6.68;3.95;;;9.00;46.70;;;;;;1489251;39;20030;-54
2021/04/17 05:02:19;;;;;;;6.35;4.13;;;9.00;46.70;;;;;;1496581;39;20367;-53
2021/04/17 05:03:40;;;;;;;8.73;4.55;;;9.00;46.70;;;;;;1495138;39;20043;-53
2021/04/17 05:05:00;;;;;;;5.03;4.40;;;9.00;46.70;;;;;;1492132;39;20055;-51
2021/04/17 05:06:21;;;;;;;7.57;4.15;;;9.00;46.80;;;;;;1493770;39;20019;-53
2021/04/17 05:07:42;;;;;;;5.57;4.40;;;9.00;47.00;;;;;;1496505;39;20024;-54
2021/04/17 05:09:05;;;;;;;5.18;3.90;;;9.00;47.00;;;;;;1494484;39;20016;-54
2021/04/17 05:10:26;;;;;;;7.35;4.68;;;9.00;47.00;;;;;;1496225;39;20026;-55
2021/04/17 05:11:47;;;;;;;7.40;4.45;;;9.00;47.00;;;;;;1495454;39;20031;-55
2021/04/17 05:13:08;;;;;;;5.10;3.92;;;9.00;47.00;;;;;;1498844;39;20034;-55
2021/04/17 05:14:28;;;;;;;7.25;4.50;;;9.00;47.00;;;;;;1492552;39;20032;-53
2021/04/17 05:15:49;;;;;;;6.05;4.18;;;9.00;47.00;;;;;;1494040;39;20519;-53
2021/04/17 05:17:10;;;;;;;4.75;4.20;;;9.00;47.00;;;;;;1496428;39;20121;-53
2021/04/17 05:18:31;;;;;;;6.85;4.53;;;9.00;47.00;;;;;;1495544;39;20027;-53
2021/04/17 05:19:55;;;;;;;7.65;4.50;;;9.00;47.20;;;;;;1497329;39;20030;-54
2021/04/17 05:21:15;;;;;;;6.03;4.25;;;9.00;47.20;;;;;;1495347;39;20035;-53
2021/04/17 05:22:36;;;;;;;8.98;4.88;;;9.00;47.10;;;;;;1497053;39;20389;-53
2021/04/17 05:23:58;;;;;;;6.60;4.00;;;9.00;47.10;;;;;;1494966;39;20027;-52
2021/04/17 05:25:19;;;;;;;6.43;4.20;;;9.00;47.30;;;;;;1498229;39;20041;-51
2021/04/17 05:26:40;;;;;;;5.43;4.15;;;8.90;47.20;;;;;;1495284;39;20050;-51
2021/04/17 05:28:03;;;;;;;5.70;4.15;;;8.90;47.20;;;;;;1493459;39;20012;-50
2021/04/17 05:29:24;;;;;;;5.43;4.00;;;9.00;47.40;;;;;;1494385;39;20045;-53
2021/04/17 05:30:45;;;;;;;5.75;4.25;;;8.90;47.40;;;;;;1495689;39;20054;-50
2021/04/17 05:32:07;;;;;;;6.22;4.15;;;8.90;47.40;;;;;;1497183;39;20046;-52
2021/04/17 05:33:28;;;;;;;6.15;4.00;;;8.90;47.40;;;;;;1498477;39;20041;-51
2021/04/17 05:34:49;;;;;;;4.63;3.70;;;9.00;47.50;;;;;;1496536;39;20360;-52
2021/04/17 05:36:10;;;;;;;6.88;4.25;;;9.00;47.50;;;;;;1498834;39;20031;-52
2021/04/17 05:37:31;;;;;;;5.82;4.10;;;9.00;47.40;;;;;;1495728;39;20077;-54
2021/04/17 05:38:53;;;;;;;6.43;4.18;;;9.00;47.90;;;;;;1495909;39;20039;-53
2021/04/17 05:40:14;;;;;;;6.50;4.10;;;8.90;47.40;;;;;;1494750;39;20083;-52
2021/04/17 05:41:35;;;;;;;4.72;4.00;;;9.00;47.50;;;;;;1494251;39;20040;-53
2021/04/17 05:42:56;;;;;;;6.20;3.85;;;9.00;47.60;;;;;;1499597;39;20027;-52
2021/04/17 05:44:17;;;;;;;7.13;4.45;;;8.90;47.60;;;;;;1494748;39;20046;-54
2021/04/17 05:45:38;;;;;;;5.32;3.85;;;8.90;47.60;;;;;;1496820;39;20035;-52
2021/04/17 05:46:59;;;;;;;7.50;5.10;;;8.90;47.60;;;;;;1497748;39;20038;-51
2021/04/17 05:48:20;;;;;;;5.93;4.45;;;8.90;47.60;;;;;;1493818;39;20035;-53
2021/04/17 05:49:40;;;;;;;4.60;4.13;;;9.00;47.70;;;;;;1496592;39;20035;-54
2021/04/17 05:51:01;;;;;;;5.57;4.00;;;8.90;47.70;;;;;;1494426;39;20027;-53
2021/04/17 05:52:22;;;;;;;5.75;4.18;;;8.90;47.70;;;;;;1496985;39;20035;-52
2021/04/17 05:53:43;;;;;;;6.82;3.95;;;8.90;47.80;;;;;;1493690;39;20035;-54
2021/04/17 05:55:05;;;;;;;4.63;4.05;;;9.00;47.90;;;;;;1496916;39;20127;-53
2021/04/17 05:56:26;;;;;;;6.55;4.10;;;8.90;47.90;;;;;;1496867;39;20030;-53
2021/04/17 05:57:47;;;;;;;5.50;4.15;;;9.00;47.90;;;;;;1495586;39;20038;-52
2021/04/17 05:59:08;;;;;;;5.07;4.13;;;9.00;48.00;;;;;;1495213;39;20399;-50
2021/04/17 06:00:29;;;;;;;5.32;4.03;;;9.00;48.00;;;;;;1498416;39;20154;-53
2021/04/17 06:01:50;;;;;;;5.30;4.40;;;9.00;48.00;;;;;;1495710;39;20031;-52
2021/04/17 06:03:11;;;;;;;7.72;4.70;;;9.00;48.00;;;;;;1497255;39;20039;-54
2021/04/17 06:04:32;;;;;;;6.97;4.65;;;9.00;48.10;;;;;;1494011;39;20072;-53
2021/04/17 06:05:54;;;;;;;5.57;4.40;;;9.00;48.10;;;;;;1495470;39;20053;-54
2021/04/17 06:07:15;;;;;;;6.10;4.28;;;9.00;48.10;;;;;;1497834;39;20026;-52
2021/04/17 06:08:37;;;;;;;6.22;4.63;;;9.00;48.10;;;;;;1495935;39;20039;-52
2021/04/17 06:09:58;;;;;;;6.70;4.60;;;9.00;48.10;;;;;;1497786;39;20020;-52
2021/04/17 06:11:19;;;;;;;6.35;4.72;;;9.00;48.10;;;;;;1495334;39;20043;-53
2021/04/17 06:12:40;;;;;;;5.93;4.28;;;9.00;48.10;;;;;;1495951;39;20047;-52
2021/04/17 06:14:01;;;;;;;6.00;4.28;;;9.00;48.20;;;;;;1493843;39;20103;-52
2021/04/17 06:15:22;;;;;;;5.32;4.35;;;9.00;48.20;;;;;;1490452;39;20379;-51
2021/04/17 06:16:43;;;;;;;6.85;4.75;;;9.00;48.30;;;;;;1493665;39;20047;-52
2021/04/17 06:18:04;;;;;;;6.53;4.65;;;9.00;48.30;;;;;;1497000;39;20042;-51
2021/04/17 06:19:25;;;;;;;5.80;4.60;;;9.10;48.40;;;;;;1494351;39;20094;-52
2021/04/17 06:20:46;;;;;;;7.00;4.65;;;9.10;48.40;;;;;;1498012;39;20511;-50
2021/04/17 06:22:07;;;;;;;5.90;5.18;;;9.10;48.50;;;;;;1497103;39;20103;-53
2021/04/17 06:23:28;;;;;;;9.13;4.75;;;9.10;48.50;;;;;;1497062;39;20047;-54
2021/04/17 06:24:49;;;;;;;7.93;4.47;;;9.10;48.50;;;;;;1495648;39;20031;-53
2021/04/17 06:26:09;;;;;;;7.05;4.50;;;9.10;48.50;;;;;;1494278;39;20054;-53
2021/04/17 06:27:30;;;;;;;6.93;4.43;;;9.10;48.50;;;;;;1496395;39;20042;-50
2021/04/17 06:28:51;;;;;;;7.70;4.38;;;9.20;48.50;;;;;;1495403;39;20040;-52
2021/04/17 06:30:13;;;;;;;6.50;4.80;;;9.20;48.60;;;;;;1493512;39;20032;-50
2021/04/17 06:31:34;;;;;;;7.43;4.88;;;9.20;48.70;;;;;;1494243;39;20049;-50
2021/04/17 06:32:55;;;;;;;7.82;4.80;;;9.20;48.70;;;;;;1497633;39;20038;-54
2021/04/17 06:34:15;;;;;;;5.85;4.18;;;9.20;48.70;;;;;;1496451;39;20041;-53
2021/04/17 06:35:38;;;;;;;6.28;4.72;;;9.20;48.80;;;;;;1494655;39;20027;-53
2021/04/17 06:36:59;;;;;;;8.63;5.20;;;9.20;48.90;;;;;;1496655;39;20061;-53
2021/04/17 06:38:20;;;;;;;8.13;5.05;;;9.30;48.90;;;;;;1498705;39;20108;-53
2021/04/17 06:39:41;;;;;;;7.38;5.00;;;9.30;48.90;;;;;;1495495;39;20031;-50
2021/04/17 06:41:02;;;;;;;8.45;4.63;;;9.30;48.90;;;;;;1495650;39;20023;-55
2021/04/17 06:42:25;;;;;;;7.97;4.85;;;9.30;48.90;;;;;;1499768;39;20039;-54
2021/04/17 06:43:48;;;;;;;8.50;5.10;;;9.40;48.90;;;;;;1495356;39;20035;-52
2021/04/17 06:45:11;;;;;;;8.10;4.63;;;9.40;48.90;;;;;;1493156;39;20071;-53
2021/04/17 06:46:33;;;;;;;8.13;4.93;;;9.40;48.90;;;;;;1498583;39;20038;-49
2021/04/17 06:47:54;;;;;;;7.88;5.32;;;9.40;48.90;;;;;;1498003;39;20023;-53
2021/04/17 06:49:16;;;;;;;8.68;5.40;;;9.40;48.90;;;;;;1495358;39;20363;-51
2021/04/17 06:50:38;;;;;;;7.65;5.07;;;9.50;48.90;;;;;;1497105;39;20031;-54
2021/04/17 06:52:01;;;;;;;6.90;5.03;;;9.50;48.90;;;;;;1496856;39;20027;-54
2021/04/17 06:53:23;;;;;;;9.10;5.10;;;9.50;48.90;;;;;;1496980;39;20195;-51
2021/04/17 06:54:46;;;;;;;6.78;4.85;;;9.50;48.90;;;;;;1496534;39;20037;-51
2021/04/17 06:56:08;;;;;;;7.78;5.35;;;9.60;49.00;;;;;;1496854;39;20065;-53
2021/04/17 06:57:28;;;;;;;7.68;5.40;;;9.60;49.10;;;;;;1499761;39;20391;-52
2021/04/17 06:58:50;;;;;;;6.78;4.63;;;9.60;49.10;;;;;;1494197;39;20038;-51
2021/04/17 07:00:14;;;;;;;10.13;5.38;;;9.60;49.10;;;;;;1498133;39;20023;-50
2021/04/17 07:01:39;;;;;;;8.25;5.03;;;9.70;49.10;;;;;;1498405;39;20158;-52
2021/04/17 07:03:00;;;;;;;7.65;5.05;;;9.70;49.10;;;;;;1498785;39;20259;-50
2021/04/17 07:04:21;;;;;;;7.32;4.75;;;9.70;48.90;;;;;;1490834;39;20031;-53
2021/04/17 07:05:42;;;;;;;9.00;4.70;;;9.80;48.90;;;;;;1495649;39;20043;-55
2021/04/17 07:07:03;;;;;;;7.13;4.70;;;9.80;48.80;;;;;;1496639;39;20031;-52
2021/04/17 07:08:24;;;;;;;7.25;4.70;;;9.80;48.80;;;;;;1498829;39;20058;-52
2021/04/17 07:09:45;;;;;;;10.80;5.50;;;9.90;48.90;;;;;;1497128;39;20111;-52